createdAt,value
2017-04-06T00:00:14.138Z,44.07
2017-04-06T00:00:46.462Z,43.97
2017-04-06T00:01:18.762Z,44.07
2017-04-06T00:01:51.063Z,44.05
2017-04-06T00:02:23.358Z,44.05
2017-04-06T00:02:55.660Z,43.95
2017-04-06T00:03:27.974Z,43.85
2017-04-06T00:04:00.289Z,43.95
2017-04-06T00:04:32.599Z,44.07
2017-04-06T00:05:04.906Z,43.85
2017-04-06T00:05:37.218Z,43.95
2017-04-06T00:06:09.523Z,43.85
2017-04-06T00:06:41.822Z,43.95
2017-04-06T00:07:14.122Z,43.85
2017-04-06T00:07:46.422Z,43.95
2017-04-06T00:08:18.741Z,43.95
2017-04-06T00:08:51.041Z,43.97
2017-04-06T00:09:23.348Z,43.95
2017-04-06T00:09:55.649Z,44.07
2017-04-06T00:10:27.947Z,43.95
2017-04-06T00:11:00.269Z,43.97
2017-04-06T00:11:32.575Z,43.95
2017-04-06T00:12:04.883Z,43.95
2017-04-06T00:12:37.185Z,44.05
2017-04-06T00:13:09.460Z,43.85
2017-04-06T00:13:41.759Z,44.05
2017-04-06T00:14:14.076Z,43.95
2017-04-06T00:14:46.389Z,44.07
2017-04-06T00:15:18.725Z,43.88
2017-04-06T00:15:51.020Z,44.05
2017-04-06T00:16:23.322Z,43.95
2017-04-06T00:16:55.629Z,43.88
2017-04-06T00:17:27.940Z,44.05
2017-04-06T00:18:00.239Z,43.85
2017-04-06T00:18:32.539Z,43.95
2017-04-06T00:19:04.855Z,43.85
2017-04-06T00:19:37.164Z,43.85
2017-04-06T00:20:09.465Z,44.05
2017-04-06T00:20:41.768Z,43.88
2017-04-06T00:21:14.072Z,43.59
2017-04-06T00:21:46.374Z,43.78
2017-04-06T00:22:18.662Z,44.05
2017-04-06T00:22:50.918Z,43.76
2017-04-06T00:23:23.181Z,43.95
2017-04-06T00:23:55.436Z,44.05
2017-04-06T00:24:27.695Z,44.05
2017-04-06T00:24:59.939Z,44.24
2017-04-06T00:25:32.245Z,44.24
2017-04-06T00:26:04.498Z,44.05
2017-04-06T00:26:36.759Z,44.24
2017-04-06T00:27:09.021Z,44.14
2017-04-06T00:27:41.282Z,44.05
2017-04-06T00:28:13.534Z,44.24
2017-04-06T00:28:45.868Z,44.14
2017-04-06T00:29:18.139Z,43.66
2017-04-06T00:29:50.393Z,43.76
2017-04-06T00:30:23.282Z,43.66
2017-04-06T00:30:55.518Z,44.05
2017-04-06T00:31:27.763Z,44.14
2017-04-06T00:32:00.005Z,43.76
2017-04-06T00:32:32.273Z,44.14
2017-04-06T00:33:04.533Z,43.76
2017-04-06T00:33:36.788Z,44.17
2017-04-06T00:34:09.043Z,43.57
2017-04-06T00:34:41.470Z,44.24
2017-04-06T00:35:13.725Z,44.05
2017-04-06T00:35:45.972Z,43.76
2017-04-06T00:36:18.214Z,44.14
2017-04-06T00:36:50.461Z,44.05
2017-04-06T00:37:22.720Z,44.14
2017-04-06T00:37:54.972Z,43.66
2017-04-06T00:38:27.238Z,43.95
2017-04-06T00:38:59.503Z,44.05
2017-04-06T00:39:31.754Z,44.14
2017-04-06T00:40:04.006Z,44.07
2017-04-06T00:40:36.360Z,43.66
2017-04-06T00:41:08.609Z,44.05
2017-04-06T00:41:40.863Z,44.05
2017-04-06T00:42:13.138Z,44.14
2017-04-06T00:42:45.431Z,44.05
2017-04-06T00:43:17.737Z,44.05
2017-04-06T00:43:50.040Z,44.14
2017-04-06T00:44:22.345Z,44.05
2017-04-06T00:44:54.649Z,44.24
2017-04-06T00:45:26.946Z,43.76
2017-04-06T00:45:59.266Z,43.95
2017-04-06T00:46:31.555Z,44.05
2017-04-06T00:47:03.858Z,44.05
2017-04-06T00:47:36.179Z,43.95
2017-04-06T00:48:08.486Z,44.05
2017-04-06T00:48:40.793Z,44.14
2017-04-06T00:49:13.101Z,43.95
2017-04-06T00:49:45.412Z,44.05
2017-04-06T00:50:17.734Z,43.85
2017-04-06T00:50:50.041Z,44.17
2017-04-06T00:51:22.344Z,44.24
2017-04-06T00:51:54.644Z,44.17
2017-04-06T00:52:26.877Z,43.95
2017-04-06T00:52:59.160Z,44.14
2017-04-06T00:53:31.411Z,44.05
2017-04-06T00:54:03.661Z,44.05
2017-04-06T00:54:35.911Z,44.14
2017-04-06T00:55:08.201Z,44.14
2017-04-06T00:55:40.473Z,44.14
2017-04-06T00:56:12.731Z,44.24
2017-04-06T00:56:44.980Z,43.95
2017-04-06T00:57:17.244Z,44.24
2017-04-06T00:57:49.504Z,44.14
2017-04-06T00:58:21.764Z,44.24
2017-04-06T00:58:54.019Z,44.24
2017-04-06T00:59:26.364Z,44.14
2017-04-06T00:59:58.610Z,44.24
2017-04-06T01:00:30.866Z,43.95
2017-04-06T01:01:03.134Z,44.05
2017-04-06T01:01:35.386Z,44.05
2017-04-06T01:02:07.647Z,44.24
2017-04-06T01:02:39.938Z,44.14
2017-04-06T01:03:12.220Z,44.14
2017-04-06T01:03:44.510Z,43.95
2017-04-06T01:04:16.809Z,44.05
2017-04-06T01:04:49.111Z,44.14
2017-04-06T01:05:21.418Z,44.05
2017-04-06T01:05:53.727Z,43.95
2017-04-06T01:06:26.040Z,44.14
2017-04-06T01:06:58.357Z,44.14
2017-04-06T01:07:30.662Z,44.14
2017-04-06T01:08:02.974Z,44.14
2017-04-06T01:08:35.275Z,44.14
2017-04-06T01:09:07.567Z,44.14
2017-04-06T01:09:39.853Z,44.14
2017-04-06T01:10:12.160Z,44.14
2017-04-06T01:10:44.457Z,44.24
2017-04-06T01:11:16.756Z,44.14
2017-04-06T01:11:49.076Z,44.34
2017-04-06T01:12:21.374Z,43.95
2017-04-06T01:12:53.679Z,44.34
2017-04-06T01:13:25.993Z,44.24
2017-04-06T01:13:58.317Z,44.34
2017-04-06T01:14:30.620Z,44.14
2017-04-06T01:15:02.924Z,44.14
2017-04-06T01:15:35.219Z,44.05
2017-04-06T01:16:07.511Z,44.34
2017-04-06T01:16:39.848Z,44.34
2017-04-06T01:17:12.159Z,44.43
2017-04-06T01:17:44.473Z,44.34
2017-04-06T01:18:16.776Z,44.43
2017-04-06T01:18:49.076Z,44.34
2017-04-06T01:19:21.368Z,44.43
2017-04-06T01:19:53.669Z,44.34
2017-04-06T01:20:25.972Z,44.43
2017-04-06T01:20:58.272Z,44.43
2017-04-06T01:21:30.574Z,43.85
2017-04-06T01:22:02.863Z,44.34
2017-04-06T01:22:35.111Z,44.05
2017-04-06T01:23:07.374Z,44.34
2017-04-06T01:23:39.703Z,44.34
2017-04-06T01:24:11.949Z,43.95
2017-04-06T01:24:44.267Z,44.34
2017-04-06T01:25:16.519Z,44.43
2017-04-06T01:25:48.760Z,44.43
2017-04-06T01:26:21.013Z,44.43
2017-04-06T01:26:53.266Z,44.34
2017-04-06T01:27:25.530Z,44.34
2017-04-06T01:27:57.898Z,44.34
2017-04-06T01:28:30.180Z,44.34
2017-04-06T01:29:02.432Z,44.43
2017-04-06T01:29:34.665Z,44.43
2017-04-06T01:30:06.917Z,44.24
2017-04-06T01:30:39.952Z,44.34
2017-04-06T01:31:12.185Z,44.34
2017-04-06T01:31:44.430Z,44.34
2017-04-06T01:32:16.673Z,44.43
2017-04-06T01:32:48.945Z,44.43
2017-04-06T01:33:21.907Z,44.34
2017-04-06T01:33:54.184Z,44.43
2017-04-06T01:34:27.255Z,44.34
2017-04-06T01:34:59.511Z,44.43
2017-04-06T01:35:31.809Z,44.34
2017-04-06T01:36:04.057Z,44.43
2017-04-06T01:36:36.336Z,44.34
2017-04-06T01:37:08.586Z,44.05
2017-04-06T01:37:40.836Z,44.24
2017-04-06T01:38:13.077Z,43.85
2017-04-06T01:38:45.328Z,44.34
2017-04-06T01:39:17.586Z,44.34
2017-04-06T01:39:50.847Z,44.34
2017-04-06T01:40:23.116Z,44.34
2017-04-06T01:40:55.373Z,44.24
2017-04-06T01:41:28.417Z,44.34
2017-04-06T01:42:00.696Z,44.34
2017-04-06T01:42:33.010Z,44.24
2017-04-06T01:43:05.314Z,44.24
2017-04-06T01:43:37.605Z,44.34
2017-04-06T01:44:09.902Z,44.34
2017-04-06T01:44:42.223Z,44.24
2017-04-06T01:45:14.533Z,44.05
2017-04-06T01:45:46.831Z,44.34
2017-04-06T01:46:19.133Z,44.34
2017-04-06T01:46:51.446Z,44.34
2017-04-06T01:47:23.741Z,44.34
2017-04-06T01:47:56.056Z,44.34
2017-04-06T01:48:28.357Z,44.34
2017-04-06T01:49:00.648Z,44.34
2017-04-06T01:49:32.955Z,44.34
2017-04-06T01:50:05.273Z,44.34
2017-04-06T01:50:37.597Z,44.34
2017-04-06T01:51:09.890Z,44.34
2017-04-06T01:51:42.184Z,44.34
2017-04-06T01:52:14.499Z,44.24
2017-04-06T01:52:46.804Z,44.26
2017-04-06T01:53:19.103Z,44.24
2017-04-06T01:53:51.397Z,43.76
2017-04-06T01:54:23.692Z,44.24
2017-04-06T01:54:55.984Z,44.43
2017-04-06T01:55:28.276Z,44.34
2017-04-06T01:56:00.587Z,44.43
2017-04-06T01:56:32.886Z,43.97
2017-04-06T01:57:05.192Z,43.95
2017-04-06T01:57:37.502Z,44.34
2017-04-06T01:58:09.804Z,44.24
2017-04-06T01:58:42.104Z,44.24
2017-04-06T01:59:14.410Z,44.34
2017-04-06T01:59:46.719Z,44.24
2017-04-06T02:00:19.030Z,43.95
2017-04-06T02:00:51.351Z,44.24
2017-04-06T02:01:23.663Z,44.34
2017-04-06T02:01:55.949Z,44.34
2017-04-06T02:02:28.209Z,44.35
2017-04-06T02:03:00.476Z,43.97
2017-04-06T02:03:32.744Z,44.34
2017-04-06T02:04:05.003Z,44.34
2017-04-06T02:04:37.264Z,44.35
2017-04-06T02:05:09.534Z,44.14
2017-04-06T02:05:41.784Z,44.26
2017-04-06T02:06:14.031Z,44.34
2017-04-06T02:06:46.267Z,44.24
2017-04-06T02:07:18.672Z,44.35
2017-04-06T02:07:50.926Z,44.35
2017-04-06T02:08:23.172Z,44.35
2017-04-06T02:08:55.408Z,44.45
2017-04-06T02:09:27.657Z,44.34
2017-04-06T02:10:00.783Z,44.05
2017-04-06T02:10:33.054Z,44.53
2017-04-06T02:11:05.333Z,44.53
2017-04-06T02:11:37.602Z,44.53
2017-04-06T02:12:09.873Z,44.24
2017-04-06T02:12:42.191Z,44.53
2017-04-06T02:13:14.484Z,44.53
2017-04-06T02:13:46.782Z,44.53
2017-04-06T02:14:19.082Z,44.26
2017-04-06T02:14:51.417Z,44.53
2017-04-06T02:15:23.718Z,44.35
2017-04-06T02:15:56.018Z,44.43
2017-04-06T02:16:28.319Z,44.45
2017-04-06T02:17:00.629Z,44.26
2017-04-06T02:17:32.929Z,44.53
2017-04-06T02:18:05.231Z,44.35
2017-04-06T02:18:37.524Z,44.45
2017-04-06T02:19:09.836Z,44.53
2017-04-06T02:19:42.149Z,44.55
2017-04-06T02:20:14.436Z,44.55
2017-04-06T02:20:46.733Z,44.45
2017-04-06T02:21:19.033Z,44.55
2017-04-06T02:21:51.392Z,44.55
2017-04-06T02:22:23.638Z,43.88
2017-04-06T02:22:56.393Z,44.17
2017-04-06T02:23:28.654Z,44.55
2017-04-06T02:24:00.919Z,44.43
2017-04-06T02:24:33.163Z,44.55
2017-04-06T02:25:05.424Z,44.45
2017-04-06T02:25:37.692Z,44.55
2017-04-06T02:26:09.950Z,44.45
2017-04-06T02:26:42.219Z,44.35
2017-04-06T02:27:14.484Z,44.55
2017-04-06T02:27:46.732Z,44.55
2017-04-06T02:28:18.979Z,44.55
2017-04-06T02:28:51.240Z,44.35
2017-04-06T02:29:23.517Z,44.45
2017-04-06T02:29:55.789Z,44.65
2017-04-06T02:30:28.035Z,44.07
2017-04-06T02:31:00.294Z,43.97
2017-04-06T02:31:32.566Z,43.97
2017-04-06T02:32:04.842Z,44.45
2017-04-06T02:32:37.120Z,44.43
2017-04-06T02:33:09.398Z,44.45
2017-04-06T02:33:41.634Z,44.43
2017-04-06T02:34:13.894Z,44.55
2017-04-06T02:34:46.167Z,44.43
2017-04-06T02:35:18.421Z,44.07
2017-04-06T02:35:50.716Z,44.34
2017-04-06T02:36:22.985Z,44.34
2017-04-06T02:36:55.259Z,44.53
2017-04-06T02:37:28.445Z,44.55
2017-04-06T02:38:00.694Z,44.14
2017-04-06T02:38:32.956Z,44.14
2017-04-06T02:39:05.208Z,44.45
2017-04-06T02:39:37.477Z,44.43
2017-04-06T02:40:09.766Z,44.43
2017-04-06T02:40:42.028Z,43.95
2017-04-06T02:41:14.294Z,44.43
2017-04-06T02:41:46.648Z,44.53
2017-04-06T02:42:18.904Z,44.53
2017-04-06T02:42:51.152Z,44.14
2017-04-06T02:43:23.393Z,44.62
2017-04-06T02:43:55.643Z,44.05
2017-04-06T02:44:27.889Z,44.43
2017-04-06T02:45:00.145Z,44.43
2017-04-06T02:45:33.344Z,44.53
2017-04-06T02:46:05.618Z,44.17
2017-04-06T02:46:38.412Z,44.45
2017-04-06T02:47:10.689Z,44.53
2017-04-06T02:47:42.969Z,44.53
2017-04-06T02:48:15.214Z,44.14
2017-04-06T02:48:48.428Z,44.53
2017-04-06T02:49:20.693Z,44.43
2017-04-06T02:49:52.953Z,44.55
2017-04-06T02:50:25.213Z,44.14
2017-04-06T02:50:57.474Z,44.53
2017-04-06T02:51:29.737Z,44.53
2017-04-06T02:52:01.991Z,44.53
2017-04-06T02:52:34.276Z,43.95
2017-04-06T02:53:06.550Z,44.53
2017-04-06T02:53:38.802Z,44.53
2017-04-06T02:54:11.846Z,44.53
2017-04-06T02:54:44.853Z,44.53
2017-04-06T02:55:17.952Z,44.62
2017-04-06T02:55:50.208Z,44.62
2017-04-06T02:56:22.459Z,44.05
2017-04-06T02:56:54.702Z,44.53
2017-04-06T02:57:26.947Z,44.53
2017-04-06T02:57:59.206Z,44.14
2017-04-06T02:58:31.446Z,44.53
2017-04-06T02:59:03.686Z,44.14
2017-04-06T02:59:35.959Z,44.43
2017-04-06T03:00:08.207Z,44.62
2017-04-06T03:00:40.470Z,44.53
2017-04-06T03:01:12.748Z,44.53
2017-04-06T03:01:45.006Z,44.14
2017-04-06T03:02:17.273Z,44.53
2017-04-06T03:02:49.573Z,44.62
2017-04-06T03:03:21.875Z,44.43
2017-04-06T03:03:54.165Z,44.53
2017-04-06T03:04:26.466Z,44.05
2017-04-06T03:04:58.772Z,44.45
2017-04-06T03:05:31.068Z,44.05
2017-04-06T03:06:03.369Z,44.53
2017-04-06T03:06:35.656Z,44.43
2017-04-06T03:07:07.952Z,44.05
2017-04-06T03:07:40.260Z,44.43
2017-04-06T03:08:12.556Z,44.43
2017-04-06T03:08:44.855Z,44.53
2017-04-06T03:09:17.177Z,44.24
2017-04-06T03:09:49.512Z,44.05
2017-04-06T03:10:21.810Z,44.62
2017-04-06T03:10:54.106Z,44.53
2017-04-06T03:11:26.405Z,44.43
2017-04-06T03:11:58.688Z,44.62
2017-04-06T03:12:30.964Z,44.53
2017-04-06T03:13:03.228Z,44.62
2017-04-06T03:13:35.470Z,44.53
2017-04-06T03:14:07.735Z,44.24
2017-04-06T03:14:39.984Z,44.62
2017-04-06T03:15:12.231Z,44.24
2017-04-06T03:15:44.486Z,44.24
2017-04-06T03:16:16.802Z,44.14
2017-04-06T03:16:49.058Z,44.53
2017-04-06T03:17:21.344Z,44.24
2017-04-06T03:17:53.592Z,44.53
2017-04-06T03:18:25.833Z,44.53
2017-04-06T03:18:58.808Z,44.53
2017-04-06T03:19:31.865Z,44.53
2017-04-06T03:20:04.113Z,44.62
2017-04-06T03:20:36.366Z,44.24
2017-04-06T03:21:08.634Z,44.53
2017-04-06T03:21:41.062Z,44.14
2017-04-06T03:22:13.311Z,44.43
2017-04-06T03:22:45.567Z,44.62
2017-04-06T03:23:17.813Z,44.14
2017-04-06T03:23:50.065Z,44.24
2017-04-06T03:24:22.311Z,44.43
2017-04-06T03:24:54.557Z,44.62
2017-04-06T03:25:26.875Z,44.43
2017-04-06T03:25:59.126Z,44.43
2017-04-06T03:26:31.379Z,44.43
2017-04-06T03:27:03.656Z,44.53
2017-04-06T03:27:35.910Z,44.43
2017-04-06T03:28:08.160Z,44.53
2017-04-06T03:28:41.372Z,44.43
2017-04-06T03:29:13.624Z,44.24
2017-04-06T03:29:45.885Z,44.43
2017-04-06T03:30:18.142Z,44.34
2017-04-06T03:30:50.411Z,44.34
2017-04-06T03:31:22.693Z,44.24
2017-04-06T03:31:54.946Z,44.05
2017-04-06T03:32:27.242Z,44.24
2017-04-06T03:32:59.512Z,44.34
2017-04-06T03:33:31.778Z,44.34
2017-04-06T03:34:04.050Z,44.43
2017-04-06T03:34:36.300Z,44.24
2017-04-06T03:35:08.540Z,44.34
2017-04-06T03:35:40.816Z,44.24
2017-04-06T03:36:13.077Z,44.53
2017-04-06T03:36:45.352Z,44.43
2017-04-06T03:37:17.636Z,44.24
2017-04-06T03:37:49.885Z,44.43
2017-04-06T03:38:22.124Z,44.43
2017-04-06T03:38:54.367Z,44.43
2017-04-06T03:39:26.616Z,44.53
2017-04-06T03:39:58.868Z,44.34
2017-04-06T03:40:31.120Z,44.34
2017-04-06T03:41:03.367Z,44.43
2017-04-06T03:41:35.643Z,44.43
2017-04-06T03:42:07.896Z,44.43
2017-04-06T03:42:40.157Z,44.43
2017-04-06T03:43:12.401Z,44.43
2017-04-06T03:43:44.643Z,44.43
2017-04-06T03:44:16.903Z,44.62
2017-04-06T03:44:49.159Z,44.43
2017-04-06T03:45:21.395Z,44.43
2017-04-06T03:45:53.672Z,44.43
2017-04-06T03:46:25.906Z,44.53
2017-04-06T03:46:58.854Z,44.53
2017-04-06T03:47:31.122Z,44.43
2017-04-06T03:48:03.966Z,44.43
2017-04-06T03:48:36.221Z,44.43
2017-04-06T03:49:08.494Z,44.43
2017-04-06T03:49:40.739Z,44.43
2017-04-06T03:50:13.988Z,44.43
2017-04-06T03:50:46.215Z,44.34
2017-04-06T03:51:18.467Z,44.62
2017-04-06T03:51:50.739Z,44.43
2017-04-06T03:52:23.059Z,44.53
2017-04-06T03:52:55.356Z,44.62
2017-04-06T03:53:27.665Z,44.34
2017-04-06T03:53:59.983Z,44.62
2017-04-06T03:54:32.296Z,44.62
2017-04-06T03:55:04.589Z,44.43
2017-04-06T03:55:36.904Z,44.34
2017-04-06T03:56:09.205Z,44.43
2017-04-06T03:56:41.523Z,44.53
2017-04-06T03:57:13.820Z,44.53
2017-04-06T03:57:46.115Z,44.43
2017-04-06T03:58:18.423Z,44.43
2017-04-06T03:58:50.733Z,44.43
2017-04-06T03:59:23.034Z,44.62
2017-04-06T03:59:55.335Z,44.43
2017-04-06T04:00:27.641Z,44.34
2017-04-06T04:00:59.942Z,44.43
2017-04-06T04:01:32.258Z,44.43
2017-04-06T04:02:04.563Z,44.43
2017-04-06T04:02:36.872Z,44.53
2017-04-06T04:03:09.168Z,44.53
2017-04-06T04:03:41.471Z,44.24
2017-04-06T04:04:13.758Z,44.53
2017-04-06T04:04:46.053Z,44.43
2017-04-06T04:05:18.342Z,44.53
2017-04-06T04:05:50.637Z,44.43
2017-04-06T04:06:22.959Z,44.43
2017-04-06T04:06:55.256Z,44.43
2017-04-06T04:07:27.554Z,44.43
2017-04-06T04:07:59.847Z,44.34
2017-04-06T04:08:32.131Z,44.34
2017-04-06T04:09:04.446Z,44.34
2017-04-06T04:09:36.758Z,44.34
2017-04-06T04:10:09.067Z,44.43
2017-04-06T04:10:41.363Z,44.43
2017-04-06T04:11:13.657Z,44.53
2017-04-06T04:11:45.957Z,44.24
2017-04-06T04:12:18.250Z,44.34
2017-04-06T04:12:50.496Z,44.24
2017-04-06T04:13:22.803Z,44.24
2017-04-06T04:13:55.051Z,44.53
2017-04-06T04:14:27.307Z,44.34
2017-04-06T04:15:00.441Z,44.53
2017-04-06T04:15:32.729Z,44.53
2017-04-06T04:16:05.839Z,44.53
2017-04-06T04:16:38.142Z,44.53
2017-04-06T04:17:10.387Z,44.43
2017-04-06T04:17:42.663Z,44.53
2017-04-06T04:18:14.925Z,44.53
2017-04-06T04:18:47.225Z,44.53
2017-04-06T04:19:19.464Z,44.43
2017-04-06T04:19:51.703Z,44.43
2017-04-06T04:20:23.960Z,44.34
2017-04-06T04:20:56.205Z,44.43
2017-04-06T04:21:28.457Z,44.34
2017-04-06T04:22:00.708Z,44.43
2017-04-06T04:22:33.007Z,44.62
2017-04-06T04:23:05.304Z,44.53
2017-04-06T04:23:37.610Z,44.53
2017-04-06T04:24:09.929Z,44.43
2017-04-06T04:24:42.231Z,44.34
2017-04-06T04:25:14.548Z,44.53
2017-04-06T04:25:46.867Z,44.43
2017-04-06T04:26:19.174Z,44.62
2017-04-06T04:26:51.467Z,44.45
2017-04-06T04:27:23.802Z,44.43
2017-04-06T04:27:56.128Z,44.43
2017-04-06T04:28:28.438Z,44.34
2017-04-06T04:29:00.736Z,44.45
2017-04-06T04:29:33.077Z,44.53
2017-04-06T04:30:05.382Z,44.43
2017-04-06T04:30:37.699Z,44.43
2017-04-06T04:31:10.018Z,44.72
2017-04-06T04:31:42.313Z,44.34
2017-04-06T04:32:14.595Z,44.45
2017-04-06T04:32:46.898Z,44.43
2017-04-06T04:33:19.205Z,44.53
2017-04-06T04:33:51.518Z,44.34
2017-04-06T04:34:23.813Z,44.82
2017-04-06T04:34:56.117Z,44.43
2017-04-06T04:35:28.417Z,44.34
2017-04-06T04:36:00.710Z,44.43
2017-04-06T04:36:33.029Z,44.74
2017-04-06T04:37:05.325Z,44.34
2017-04-06T04:37:37.633Z,44.43
2017-04-06T04:38:09.939Z,44.24
2017-04-06T04:38:42.249Z,44.35
2017-04-06T04:39:14.555Z,44.72
2017-04-06T04:39:46.848Z,44.34
2017-04-06T04:40:19.163Z,44.72
2017-04-06T04:40:51.493Z,44.34
2017-04-06T04:41:23.798Z,44.72
2017-04-06T04:41:56.100Z,44.24
2017-04-06T04:42:28.413Z,44.72
2017-04-06T04:43:00.719Z,44.62
2017-04-06T04:43:33.044Z,44.72
2017-04-06T04:44:05.344Z,44.43
2017-04-06T04:44:37.638Z,44.35
2017-04-06T04:45:09.945Z,44.72
2017-04-06T04:45:42.242Z,44.43
2017-04-06T04:46:14.545Z,44.34
2017-04-06T04:46:46.847Z,44.72
2017-04-06T04:47:19.148Z,44.24
2017-04-06T04:47:51.454Z,44.72
2017-04-06T04:48:23.754Z,44.72
2017-04-06T04:48:56.040Z,44.26
2017-04-06T04:49:28.357Z,44.24
2017-04-06T04:50:00.653Z,44.24
2017-04-06T04:50:32.946Z,44.72
2017-04-06T04:51:05.252Z,44.82
2017-04-06T04:51:37.547Z,44.72
2017-04-06T04:52:09.850Z,44.43
2017-04-06T04:52:42.138Z,44.24
2017-04-06T04:53:14.427Z,44.72
2017-04-06T04:53:46.725Z,44.72
2017-04-06T04:54:19.021Z,44.24
2017-04-06T04:54:51.320Z,44.72
2017-04-06T04:55:23.624Z,44.82
2017-04-06T04:55:55.922Z,44.72
2017-04-06T04:56:28.251Z,44.72
2017-04-06T04:57:00.560Z,44.72
2017-04-06T04:57:32.862Z,44.72
2017-04-06T04:58:05.167Z,44.72
2017-04-06T04:58:37.468Z,44.72
2017-04-06T04:59:09.760Z,44.62
2017-04-06T04:59:42.065Z,44.62
2017-04-06T05:00:14.355Z,44.62
2017-04-06T05:00:46.659Z,44.65
2017-04-06T05:01:18.951Z,44.74
2017-04-06T05:01:51.273Z,44.72
2017-04-06T05:02:23.590Z,44.72
2017-04-06T05:02:55.908Z,44.72
2017-04-06T05:03:28.219Z,44.82
2017-04-06T05:04:00.519Z,44.72
2017-04-06T05:04:32.859Z,44.82
2017-04-06T05:05:05.156Z,44.62
2017-04-06T05:05:37.461Z,44.62
2017-04-06T05:06:09.761Z,44.62
2017-04-06T05:06:42.053Z,44.72
2017-04-06T05:07:14.345Z,44.62
2017-04-06T05:07:46.665Z,44.74
2017-04-06T05:08:18.965Z,44.72
2017-04-06T05:08:51.270Z,44.62
2017-04-06T05:09:23.563Z,44.72
2017-04-06T05:09:55.866Z,44.82
2017-04-06T05:10:28.179Z,44.62
2017-04-06T05:11:00.474Z,44.72
2017-04-06T05:11:32.789Z,45.01
2017-04-06T05:12:05.079Z,45.01
2017-04-06T05:12:37.339Z,44.82
2017-04-06T05:13:09.591Z,44.82
2017-04-06T05:13:41.892Z,44.62
2017-04-06T05:14:14.163Z,45.01
2017-04-06T05:14:46.417Z,45.1
2017-04-06T05:15:18.682Z,44.62
2017-04-06T05:15:50.951Z,44.72
2017-04-06T05:16:23.189Z,44.82
2017-04-06T05:16:55.512Z,45.01
2017-04-06T05:17:27.793Z,44.84
2017-04-06T05:18:00.058Z,45.03
2017-04-06T05:18:32.337Z,44.62
2017-04-06T05:19:04.637Z,44.82
2017-04-06T05:19:37.370Z,44.72
2017-04-06T05:20:09.616Z,44.82
2017-04-06T05:21:43.773Z,44.62
2017-04-06T05:22:16.026Z,44.84
2017-04-06T05:22:48.270Z,44.84
2017-04-06T05:23:20.526Z,45.01
2017-04-06T05:23:52.785Z,45.13
2017-04-06T05:24:26.051Z,44.72
2017-04-06T05:24:58.314Z,44.84
2017-04-06T05:25:30.564Z,45.01
2017-04-06T05:26:02.845Z,45.13
2017-04-06T05:26:35.089Z,44.82
2017-04-06T05:27:07.344Z,44.62
2017-04-06T05:27:39.603Z,44.93
2017-04-06T05:28:11.843Z,44.62
2017-04-06T05:28:44.599Z,44.82
2017-04-06T05:29:16.852Z,44.65
2017-04-06T05:29:49.100Z,44.91
2017-04-06T05:30:21.344Z,44.82
2017-04-06T05:30:53.579Z,44.65
2017-04-06T05:31:25.825Z,44.72
2017-04-06T05:31:59.098Z,44.93
2017-04-06T05:32:31.340Z,44.72
2017-04-06T05:33:03.602Z,44.84
2017-04-06T05:33:35.843Z,45.13
2017-04-06T05:34:08.083Z,45.1
2017-04-06T05:34:40.330Z,45.03
2017-04-06T05:35:12.706Z,45.03
2017-04-06T05:35:45.670Z,44.62
2017-04-06T05:36:17.932Z,45.13
2017-04-06T05:36:50.263Z,45.01
2017-04-06T05:37:22.516Z,44.74
2017-04-06T05:37:54.765Z,44.65
2017-04-06T05:38:27.031Z,44.74
2017-04-06T05:39:00.553Z,45.01
2017-04-06T05:39:32.790Z,45.03
2017-04-06T05:40:05.682Z,44.62
2017-04-06T05:40:37.964Z,44.55
2017-04-06T05:41:10.215Z,44.65
2017-04-06T05:41:42.479Z,45.03
2017-04-06T05:42:15.562Z,45.01
2017-04-06T05:42:47.801Z,44.65
2017-04-06T05:43:20.662Z,44.74
2017-04-06T05:43:52.931Z,45.13
2017-04-06T05:44:25.170Z,45.03
2017-04-06T05:44:57.416Z,45.03
2017-04-06T05:45:29.662Z,45.03
2017-04-06T05:46:01.906Z,45.03
2017-04-06T05:46:34.168Z,45.13
2017-04-06T05:47:06.415Z,44.74
2017-04-06T05:47:39.230Z,45.13
2017-04-06T05:48:11.470Z,44.74
2017-04-06T05:48:43.711Z,45.03
2017-04-06T05:49:15.956Z,45.01
2017-04-06T05:49:48.233Z,44.65
2017-04-06T05:50:20.482Z,45.03
2017-04-06T05:50:53.620Z,44.74
2017-04-06T05:51:26.707Z,44.74
2017-04-06T05:51:58.988Z,45.03
2017-04-06T05:52:31.295Z,44.74
2017-04-06T05:53:03.607Z,45.03
2017-04-06T05:53:36.728Z,45.03
2017-04-06T05:54:09.030Z,45.03
2017-04-06T05:54:41.333Z,44.65
2017-04-06T05:55:13.627Z,45.03
2017-04-06T05:55:45.919Z,44.74
2017-04-06T05:56:18.238Z,45.03
2017-04-06T05:56:50.528Z,44.93
2017-04-06T05:57:22.869Z,44.93
2017-04-06T05:57:55.934Z,45.03
2017-04-06T05:58:28.504Z,45.13
2017-04-06T05:59:00.805Z,45.03
2017-04-06T05:59:33.118Z,44.74
2017-04-06T06:00:05.431Z,44.93
2017-04-06T06:00:37.731Z,45.03
2017-04-06T06:01:10.065Z,45.03
2017-04-06T06:01:42.107Z,44.93
2017-04-06T06:02:14.392Z,44.93
2017-04-06T06:02:46.682Z,44.65
2017-04-06T06:03:18.972Z,44.65
2017-04-06T06:03:51.283Z,44.74
2017-04-06T06:04:23.583Z,44.74
2017-04-06T06:04:55.893Z,44.84
2017-04-06T06:05:28.178Z,44.65
2017-04-06T06:06:00.475Z,44.26
2017-04-06T06:06:32.781Z,44.84
2017-04-06T06:07:05.107Z,44.65
2017-04-06T06:07:37.393Z,44.65
2017-04-06T06:08:10.688Z,44.26
2017-04-06T06:08:42.977Z,44.55
2017-04-06T06:09:15.317Z,44.45
2017-04-06T06:09:47.633Z,44.26
2017-04-06T06:10:19.944Z,44.84
2017-04-06T06:10:52.246Z,44.74
2017-04-06T06:11:24.554Z,44.74
2017-04-06T06:11:56.852Z,44.74
2017-04-06T06:12:29.168Z,44.84
2017-04-06T06:13:01.459Z,44.65
2017-04-06T06:13:33.758Z,44.84
2017-04-06T06:14:06.048Z,44.45
2017-04-06T06:14:38.386Z,44.26
2017-04-06T06:15:10.703Z,44.45
2017-04-06T06:15:42.989Z,44.35
2017-04-06T06:16:15.322Z,44.74
2017-04-06T06:16:47.656Z,44.45
2017-04-06T06:17:20.007Z,44.45
2017-04-06T06:17:52.312Z,44.55
2017-04-06T06:18:24.605Z,44.74
2017-04-06T06:18:56.897Z,44.65
2017-04-06T06:19:29.197Z,44.65
2017-04-06T06:20:01.488Z,44.55
2017-04-06T06:20:33.815Z,44.45
2017-04-06T06:21:06.117Z,44.55
2017-04-06T06:21:38.426Z,44.45
2017-04-06T06:22:10.726Z,44.38
2017-04-06T06:22:43.018Z,44.48
2017-04-06T06:23:15.311Z,44.57
2017-04-06T06:23:47.596Z,44.38
2017-04-06T06:24:19.891Z,44.38
2017-04-06T06:24:52.193Z,44.48
2017-04-06T06:25:24.483Z,44.09
2017-04-06T06:25:56.787Z,44.19
2017-04-06T06:26:29.084Z,44.48
2017-04-06T06:27:01.371Z,44.28
2017-04-06T06:27:33.696Z,44.48
2017-04-06T06:28:05.994Z,44.28
2017-04-06T06:28:38.298Z,44.48
2017-04-06T06:29:10.601Z,44.48
2017-04-06T06:29:42.901Z,44.57
2017-04-06T06:30:15.212Z,44.57
2017-04-06T06:30:47.518Z,44.28
2017-04-06T06:31:19.809Z,44.57
2017-04-06T06:31:52.098Z,44.48
2017-04-06T06:32:24.404Z,44.57
2017-04-06T06:32:56.719Z,44.09
2017-04-06T06:33:29.100Z,44.19
2017-04-06T06:34:01.615Z,44.67
2017-04-06T06:34:34.131Z,44.57
2017-04-06T06:35:06.424Z,44.48
2017-04-06T06:35:38.720Z,44.19
2017-04-06T06:36:11.021Z,44.49
2017-04-06T06:36:43.315Z,44.02
2017-04-06T06:37:15.610Z,44.49
2017-04-06T06:37:47.908Z,44.49
2017-04-06T06:38:20.223Z,44.4
2017-04-06T06:38:52.929Z,44.02
2017-04-06T06:39:25.925Z,44.31
2017-04-06T06:39:58.228Z,44.31
2017-04-06T06:40:30.519Z,44.11
2017-04-06T06:41:02.830Z,44.4
2017-04-06T06:41:35.147Z,44.31
2017-04-06T06:42:07.428Z,44.4
2017-04-06T06:42:39.693Z,44.49
2017-04-06T06:43:11.935Z,44.49
2017-04-06T06:43:44.197Z,44.31
2017-04-06T06:44:16.442Z,44.31
2017-04-06T06:44:48.688Z,44.31
2017-04-06T06:45:20.929Z,44.21
2017-04-06T06:45:53.186Z,44.49
2017-04-06T06:46:25.478Z,44.49
2017-04-06T06:46:57.834Z,44.31
2017-04-06T06:47:30.090Z,44.02
2017-04-06T06:48:02.340Z,44.4
2017-04-06T06:48:34.601Z,44.4
2017-04-06T06:49:06.858Z,44.04
2017-04-06T06:49:39.120Z,44.23
2017-04-06T06:50:12.279Z,44.11
2017-04-06T06:50:44.522Z,44.21
2017-04-06T06:51:16.762Z,44.4
2017-04-06T06:51:49.012Z,44.31
2017-04-06T06:52:21.261Z,44.4
2017-04-06T06:52:53.505Z,44.13
2017-04-06T06:53:25.757Z,44.23
2017-04-06T06:53:58.147Z,44.42
2017-04-06T06:54:30.401Z,44.23
2017-04-06T06:55:02.653Z,44.04
2017-04-06T06:55:34.919Z,44.13
2017-04-06T06:56:07.155Z,44.32
2017-04-06T06:56:39.422Z,44.32
2017-04-06T06:57:11.704Z,44.32